sensor_id;sensor_type;location;lat;lon;timestamp;pressure;altitude;pressure_sealevel;temperature;humidity
12219;BME280;6172;42.646;23.344;2023-06-19T00:01:44;94693.81;;;17.00;100.00
12219;BME280;6172;42.646;23.344;2023-06-19T00:04:11;94690.88;;;16.94;100.00
12219;BME280;6172;42.646;23.344;2023-06-19T00:06:38;94695.19;;;16.95;100.00
12219;BME280;6172;42.646;23.344;2023-06-19T00:09:06;94687.84;;;16.92;100.00
12219;BME280;6172;42.646;23.344;2023-06-19T00:11:34;94699.13;;;16.85;100.00
12219;BME280;6172;42.646;23.344;2023-06-19T00:14:02;94689.94;;;16.79;100.00
12219;BME280;6172;42.646;23.344;2023-06-19T00:16:28;94689.28;;;16.66;100.00
12219;BME280;6172;42.646;23.344;2023-06-19T00:18:57;94679.25;;;16.60;100.00
12219;BME280;6172;42.646;23.344;2023-06-19T00:21:25;94682.53;;;16.67;100.00
12219;BME280;6172;42.646;23.344;2023-06-19T00:23:52;94681.63;;;16.70;100.00
12219;BME280;6172;42.646;23.344;2023-06-19T00:26:20;94674.03;;;16.53;100.00
12219;BME280;6172;42.646;23.344;2023-06-19T00:28:48;94681.84;;;16.54;100.00
12219;BME280;6172;42.646;23.344;2023-06-19T00:31:15;94680.16;;;16.48;100.00
12219;BME280;6172;42.646;23.344;2023-06-19T00:33:42;94678.59;;;16.47;100.00
12219;BME280;6172;42.646;23.344;2023-06-19T00:36:11;94679.38;;;16.47;100.00
12219;BME280;6172;42.646;23.344;2023-06-19T00:38:39;94671.84;;;16.39;100.00
12219;BME280;6172;42.646;23.344;2023-06-19T00:41:06;94674.59;;;16.39;100.00
12219;BME280;6172;42.646;23.344;2023-06-19T00:43:33;94675.66;;;16.41;100.00
12219;BME280;6172;42.646;23.344;2023-06-19T00:46:02;94671.50;;;16.37;100.00
12219;BME280;6172;42.646;23.344;2023-06-19T00:48:30;94659.38;;;16.25;100.00
12219;BME280;6172;42.646;23.344;2023-06-19T00:50:58;94668.59;;;16.31;100.00
12219;BME280;6172;42.646;23.344;2023-06-19T00:53:28;94665.97;;;16.28;100.00
12219;BME280;6172;42.646;23.344;2023-06-19T00:55:56;94668.28;;;16.29;100.00
12219;BME280;6172;42.646;23.344;2023-06-19T00:58:24;94660.16;;;16.26;100.00
12219;BME280;6172;42.646;23.344;2023-06-19T01:00:51;94652.47;;;16.21;100.00
12219;BME280;6172;42.646;23.344;2023-06-19T01:03:18;94649.09;;;16.17;100.00
12219;BME280;6172;42.646;23.344;2023-06-19T01:05:47;94650.00;;;16.14;100.00
12219;BME280;6172;42.646;23.344;2023-06-19T01:08:33;94639.91;;;16.11;100.00
12219;BME280;6172;42.646;23.344;2023-06-19T01:11:04;94647.06;;;16.08;100.00
12219;BME280;6172;42.646;23.344;2023-06-19T01:13:36;94654.13;;;16.09;100.00
12219;BME280;6172;42.646;23.344;2023-06-19T01:16:04;94646.78;;;16.06;100.00
12219;BME280;6172;42.646;23.344;2023-06-19T01:18:32;94649.31;;;16.01;100.00
12219;BME280;6172;42.646;23.344;2023-06-19T01:21:10;94645.31;;;15.93;100.00
12219;BME280;6172;42.646;23.344;2023-06-19T01:23:39;94642.66;;;15.89;100.00
12219;BME280;6172;42.646;23.344;2023-06-19T01:26:06;94648.88;;;15.81;100.00
12219;BME280;6172;42.646;23.344;2023-06-19T01:28:34;94655.03;;;15.85;100.00
12219;BME280;6172;42.646;23.344;2023-06-19T01:31:05;94656.03;;;15.78;100.00
12219;BME280;6172;42.646;23.344;2023-06-19T01:33:35;94648.25;;;15.77;100.00
12219;BME280;6172;42.646;23.344;2023-06-19T01:36:05;94646.06;;;15.72;100.00
12219;BME280;6172;42.646;23.344;2023-06-19T01:38:34;94654.06;;;15.66;100.00
12219;BME280;6172;42.646;23.344;2023-06-19T01:41:04;94657.84;;;15.60;100.00
12219;BME280;6172;42.646;23.344;2023-06-19T01:43:33;94658.94;;;15.62;100.00
12219;BME280;6172;42.646;23.344;2023-06-19T01:46:00;94663.47;;;15.56;100.00
12219;BME280;6172;42.646;23.344;2023-06-19T01:48:28;94668.97;;;15.56;100.00
12219;BME280;6172;42.646;23.344;2023-06-19T01:50:54;94668.75;;;15.51;100.00
12219;BME280;6172;42.646;23.344;2023-06-19T01:53:21;94669.66;;;15.48;100.00
12219;BME280;6172;42.646;23.344;2023-06-19T01:55:48;94664.94;;;15.48;100.00
12219;BME280;6172;42.646;23.344;2023-06-19T01:58:17;94671.56;;;15.38;100.00
12219;BME280;6172;42.646;23.344;2023-06-19T02:00:44;94683.00;;;15.37;100.00
12219;BME280;6172;42.646;23.344;2023-06-19T02:03:11;94675.78;;;15.30;100.00
12219;BME280;6172;42.646;23.344;2023-06-19T02:05:38;94690.06;;;15.25;100.00
12219;BME280;6172;42.646;23.344;2023-06-19T02:08:05;94685.00;;;15.24;100.00
12219;BME280;6172;42.646;23.344;2023-06-19T02:10:32;94692.16;;;15.21;100.00
12219;BME280;6172;42.646;23.344;2023-06-19T02:12:59;94686.13;;;15.14;100.00
12219;BME280;6172;42.646;23.344;2023-06-19T02:15:29;94690.84;;;15.13;100.00
12219;BME280;6172;42.646;23.344;2023-06-19T02:17:56;94683.97;;;15.09;100.00
12219;BME280;6172;42.646;23.344;2023-06-19T02:20:24;94685.28;;;15.04;100.00
12219;BME280;6172;42.646;23.344;2023-06-19T02:22:51;94693.06;;;15.06;100.00
12219;BME280;6172;42.646;23.344;2023-06-19T02:25:19;94693.63;;;15.00;100.00
12219;BME280;6172;42.646;23.344;2023-06-19T02:27:46;94694.41;;;15.01;100.00
12219;BME280;6172;42.646;23.344;2023-06-19T02:30:13;94691.22;;;14.90;100.00
12219;BME280;6172;42.646;23.344;2023-06-19T02:32:42;94697.91;;;14.89;100.00
12219;BME280;6172;42.646;23.344;2023-06-19T02:35:10;94699.13;;;14.88;100.00
12219;BME280;6172;42.646;23.344;2023-06-19T02:37:37;94700.00;;;14.85;100.00
12219;BME280;6172;42.646;23.344;2023-06-19T02:40:05;94701.13;;;14.75;100.00
12219;BME280;6172;42.646;23.344;2023-06-19T02:42:34;94707.09;;;14.70;100.00
12219;BME280;6172;42.646;23.344;2023-06-19T02:45:01;94704.38;;;14.70;100.00
12219;BME280;6172;42.646;23.344;2023-06-19T02:47:29;94717.22;;;14.48;100.00
12219;BME280;6172;42.646;23.344;2023-06-19T02:49:59;94721.56;;;14.33;100.00
12219;BME280;6172;42.646;23.344;2023-06-19T02:52:26;94735.47;;;14.26;100.00
12219;BME280;6172;42.646;23.344;2023-06-19T02:54:53;94727.03;;;14.20;100.00
12219;BME280;6172;42.646;23.344;2023-06-19T02:57:21;94733.81;;;14.16;100.00
12219;BME280;6172;42.646;23.344;2023-06-19T02:59:48;94727.00;;;14.08;100.00
12219;BME280;6172;42.646;23.344;2023-06-19T03:02:15;94725.50;;;14.19;100.00
12219;BME280;6172;42.646;23.344;2023-06-19T03:04:42;94732.16;;;14.18;100.00
12219;BME280;6172;42.646;23.344;2023-06-19T03:07:11;94723.84;;;14.22;100.00
12219;BME280;6172;42.646;23.344;2023-06-19T03:09:39;94729.13;;;14.29;100.00
12219;BME280;6172;42.646;23.344;2023-06-19T03:12:08;94719.59;;;14.33;100.00
12219;BME280;6172;42.646;23.344;2023-06-19T03:14:35;94720.16;;;14.41;100.00
12219;BME280;6172;42.646;23.344;2023-06-19T03:17:02;94719.91;;;14.35;100.00
12219;BME280;6172;42.646;23.344;2023-06-19T03:19:29;94731.78;;;14.32;100.00
12219;BME280;6172;42.646;23.344;2023-06-19T03:21:56;94729.22;;;14.25;100.00
12219;BME280;6172;42.646;23.344;2023-06-19T03:24:24;94725.28;;;14.26;100.00
12219;BME280;6172;42.646;23.344;2023-06-19T03:26:51;94730.66;;;14.30;100.00
12219;BME280;6172;42.646;23.344;2023-06-19T03:29:18;94730.88;;;14.23;100.00
12219;BME280;6172;42.646;23.344;2023-06-19T03:31:45;94728.47;;;14.25;100.00
12219;BME280;6172;42.646;23.344;2023-06-19T03:34:12;94730.00;;;14.26;100.00
12219;BME280;6172;42.646;23.344;2023-06-19T03:36:39;94727.38;;;14.22;100.00
12219;BME280;6172;42.646;23.344;2023-06-19T03:39:06;94732.22;;;14.31;100.00
12219;BME280;6172;42.646;23.344;2023-06-19T03:41:34;94729.13;;;14.29;100.00
12219;BME280;6172;42.646;23.344;2023-06-19T03:44:01;94718.69;;;14.24;100.00
12219;BME280;6172;42.646;23.344;2023-06-19T03:46:28;94716.66;;;14.40;100.00
12219;BME280;6172;42.646;23.344;2023-06-19T03:48:55;94719.09;;;14.51;100.00
12219;BME280;6172;42.646;23.344;2023-06-19T03:51:22;94726.31;;;14.45;100.00
12219;BME280;6172;42.646;23.344;2023-06-19T03:53:49;94720.38;;;14.59;100.00
12219;BME280;6172;42.646;23.344;2023-06-19T03:56:16;94713.75;;;14.72;100.00
12219;BME280;6172;42.646;23.344;2023-06-19T03:58:44;94719.22;;;14.85;100.00
12219;BME280;6172;42.646;23.344;2023-06-19T04:01:11;94713.84;;;14.94;100.00
12219;BME280;6172;42.646;23.344;2023-06-19T04:03:38;94709.84;;;15.07;100.00
12219;BME280;6172;42.646;23.344;2023-06-19T04:06:05;94706.31;;;15.20;100.00
12219;BME280;6172;42.646;23.344;2023-06-19T04:08:33;94704.38;;;15.20;100.00
12219;BME280;6172;42.646;23.344;2023-06-19T04:11:00;94703.25;;;15.30;100.00
12219;BME280;6172;42.646;23.344;2023-06-19T04:13:27;94694.06;;;15.46;100.00
12219;BME280;6172;42.646;23.344;2023-06-19T04:15:55;94697.41;;;15.28;100.00
12219;BME280;6172;42.646;23.344;2023-06-19T04:18:22;94705.41;;;15.35;100.00
12219;BME280;6172;42.646;23.344;2023-06-19T04:20:49;94708.94;;;15.36;100.00
12219;BME280;6172;42.646;23.344;2023-06-19T04:23:16;94707.16;;;15.42;100.00
12219;BME280;6172;42.646;23.344;2023-06-19T04:25:43;94696.13;;;15.54;100.00
12219;BME280;6172;42.646;23.344;2023-06-19T04:28:10;94697.47;;;15.71;100.00
12219;BME280;6172;42.646;23.344;2023-06-19T04:30:37;94701.16;;;15.90;100.00
12219;BME280;6172;42.646;23.344;2023-06-19T04:33:07;94699.56;;;16.01;100.00
12219;BME280;6172;42.646;23.344;2023-06-19T04:35:34;94700.91;;;16.18;100.00
12219;BME280;6172;42.646;23.344;2023-06-19T04:38:05;94677.00;;;16.28;100.00
12219;BME280;6172;42.646;23.344;2023-06-19T04:40:32;94687.63;;;16.47;100.00
12219;BME280;6172;42.646;23.344;2023-06-19T04:43:00;94687.03;;;16.52;100.00
12219;BME280;6172;42.646;23.344;2023-06-19T04:45:27;94685.22;;;16.58;100.00
12219;BME280;6172;42.646;23.344;2023-06-19T04:47:54;94689.16;;;16.79;100.00
12219;BME280;6172;42.646;23.344;2023-06-19T04:50:23;94680.78;;;16.91;100.00
12219;BME280;6172;42.646;23.344;2023-06-19T04:52:50;94683.91;;;17.11;100.00
12219;BME280;6172;42.646;23.344;2023-06-19T04:55:17;94675.66;;;17.20;100.00
12219;BME280;6172;42.646;23.344;2023-06-19T04:57:44;94677.22;;;17.30;100.00
12219;BME280;6172;42.646;23.344;2023-06-19T05:00:12;94677.53;;;17.42;100.00
12219;BME280;6172;42.646;23.344;2023-06-19T05:02:40;94677.53;;;17.51;100.00
12219;BME280;6172;42.646;23.344;2023-06-19T05:05:11;94675.44;;;17.64;100.00
12219;BME280;6172;42.646;23.344;2023-06-19T05:07:40;94680.63;;;17.71;100.00
12219;BME280;6172;42.646;23.344;2023-06-19T05:10:07;94673.28;;;17.77;100.00
12219;BME280;6172;42.646;23.344;2023-06-19T05:12:34;94674.66;;;17.81;100.00
12219;BME280;6172;42.646;23.344;2023-06-19T05:15:02;94671.13;;;17.90;100.00
12219;BME280;6172;42.646;23.344;2023-06-19T05:17:29;94667.16;;;17.91;100.00
12219;BME280;6172;42.646;23.344;2023-06-19T05:19:56;94674.22;;;17.92;100.00
12219;BME280;6172;42.646;23.344;2023-06-19T05:22:23;94675.44;;;17.82;100.00
12219;BME280;6172;42.646;23.344;2023-06-19T05:24:53;94682.13;;;18.08;100.00
12219;BME280;6172;42.646;23.344;2023-06-19T05:27:20;94681.69;;;18.09;100.00
12219;BME280;6172;42.646;23.344;2023-06-19T05:29:47;94687.78;;;18.31;100.00
12219;BME280;6172;42.646;23.344;2023-06-19T05:32:14;94690.09;;;18.24;100.00
12219;BME280;6172;42.646;23.344;2023-06-19T05:34:41;94690.09;;;18.42;100.00
12219;BME280;6172;42.646;23.344;2023-06-19T05:37:08;94688.97;;;18.57;100.00
12219;BME280;6172;42.646;23.344;2023-06-19T05:39:35;94701.50;;;18.67;100.00
12219;BME280;6172;42.646;23.344;2023-06-19T05:42:03;94703.34;;;18.70;100.00
12219;BME280;6172;42.646;23.344;2023-06-19T05:44:30;94701.75;;;18.87;100.00
12219;BME280;6172;42.646;23.344;2023-06-19T05:46:57;94701.19;;;19.07;100.00
12219;BME280;6172;42.646;23.344;2023-06-19T05:49:24;94699.72;;;19.29;100.00
12219;BME280;6172;42.646;23.344;2023-06-19T05:51:52;94706.16;;;19.35;100.00
12219;BME280;6172;42.646;23.344;2023-06-19T05:54:19;94694.75;;;19.42;100.00
12219;BME280;6172;42.646;23.344;2023-06-19T05:56:46;94693.13;;;19.50;100.00
12219;BME280;6172;42.646;23.344;2023-06-19T05:59:17;94692.19;;;19.53;100.00
12219;BME280;6172;42.646;23.344;2023-06-19T06:01:44;94696.50;;;20.31;100.00
12219;BME280;6172;42.646;23.344;2023-06-19T06:04:11;94686.47;;;22.01;93.95
12219;BME280;6172;42.646;23.344;2023-06-19T06:06:39;94681.94;;;23.84;74.47
12219;BME280;6172;42.646;23.344;2023-06-19T06:09:06;94688.75;;;25.52;60.45
12219;BME280;6172;42.646;23.344;2023-06-19T06:11:36;94687.63;;;27.56;52.08
12219;BME280;6172;42.646;23.344;2023-06-19T06:14:03;94688.81;;;27.36;51.08
12219;BME280;6172;42.646;23.344;2023-06-19T06:16:31;94691.50;;;29.57;46.00
12219;BME280;6172;42.646;23.344;2023-06-19T06:18:58;94692.94;;;30.28;42.51
12219;BME280;6172;42.646;23.344;2023-06-19T06:21:25;94690.81;;;31.02;38.89
12219;BME280;6172;42.646;23.344;2023-06-19T06:23:53;94685.78;;;31.41;38.79
12219;BME280;6172;42.646;23.344;2023-06-19T06:26:20;94690.75;;;31.69;36.64
12219;BME280;6172;42.646;23.344;2023-06-19T06:28:47;94694.72;;;30.99;38.52
12219;BME280;6172;42.646;23.344;2023-06-19T06:31:14;94681.41;;;31.33;37.30
12219;BME280;6172;42.646;23.344;2023-06-19T06:33:42;94691.03;;;29.40;40.40
12219;BME280;6172;42.646;23.344;2023-06-19T06:36:11;94690.59;;;28.30;42.53
12219;BME280;6172;42.646;23.344;2023-06-19T06:38:38;94683.09;;;30.09;40.89
12219;BME280;6172;42.646;23.344;2023-06-19T06:41:05;94692.78;;;31.27;37.62
12219;BME280;6172;42.646;23.344;2023-06-19T06:43:32;94698.38;;;30.13;39.86
12219;BME280;6172;42.646;23.344;2023-06-19T06:45:59;94693.41;;;31.54;37.34
12219;BME280;6172;42.646;23.344;2023-06-19T06:48:26;94692.94;;;30.02;39.45
12219;BME280;6172;42.646;23.344;2023-06-19T06:50:55;94696.50;;;29.77;40.81
12219;BME280;6172;42.646;23.344;2023-06-19T06:53:26;94691.56;;;30.35;39.37
12219;BME280;6172;42.646;23.344;2023-06-19T06:55:54;94704.78;;;30.74;38.30
12219;BME280;6172;42.646;23.344;2023-06-19T06:58:21;94699.53;;;30.18;39.09
12219;BME280;6172;42.646;23.344;2023-06-19T07:00:48;94674.75;;;30.42;38.14
12219;BME280;6172;42.646;23.344;2023-06-19T07:03:16;94685.59;;;31.06;36.99
12219;BME280;6172;42.646;23.344;2023-06-19T07:05:43;94688.94;;;31.17;37.44
12219;BME280;6172;42.646;23.344;2023-06-19T07:08:11;94698.78;;;30.44;37.48
12219;BME280;6172;42.646;23.344;2023-06-19T07:10:38;94687.16;;;29.11;40.03
12219;BME280;6172;42.646;23.344;2023-06-19T07:13:05;94690.16;;;28.63;41.14
12219;BME280;6172;42.646;23.344;2023-06-19T07:15:32;94684.97;;;28.30;39.70
12219;BME280;6172;42.646;23.344;2023-06-19T07:17:59;94691.75;;;29.72;38.92
12219;BME280;6172;42.646;23.344;2023-06-19T07:20:26;94684.69;;;30.57;36.33
12219;BME280;6172;42.646;23.344;2023-06-19T07:22:53;94691.22;;;30.12;37.28
12219;BME280;6172;42.646;23.344;2023-06-19T07:25:22;94695.88;;;30.36;36.53
12219;BME280;6172;42.646;23.344;2023-06-19T07:27:50;94689.97;;;30.60;36.84
12219;BME280;6172;42.646;23.344;2023-06-19T07:30:17;94695.34;;;30.24;36.89
12219;BME280;6172;42.646;23.344;2023-06-19T07:32:44;94696.66;;;29.08;39.29
12219;BME280;6172;42.646;23.344;2023-06-19T07:35:12;94698.00;;;29.33;39.02
12219;BME280;6172;42.646;23.344;2023-06-19T07:37:39;94691.31;;;30.93;35.72
12219;BME280;6172;42.646;23.344;2023-06-19T07:40:08;94695.09;;;29.70;37.48
12219;BME280;6172;42.646;23.344;2023-06-19T07:42:37;94703.22;;;29.87;37.10
12219;BME280;6172;42.646;23.344;2023-06-19T07:45:05;94699.69;;;31.06;34.95
12219;BME280;6172;42.646;23.344;2023-06-19T07:47:32;94678.66;;;29.17;37.99
12219;BME280;6172;42.646;23.344;2023-06-19T07:49:59;94693.47;;;30.01;36.66
12219;BME280;6172;42.646;23.344;2023-06-19T07:52:26;94700.09;;;30.03;36.41
12219;BME280;6172;42.646;23.344;2023-06-19T07:54:54;94698.91;;;29.99;36.62
12219;BME280;6172;42.646;23.344;2023-06-19T07:57:23;94699.22;;;30.08;36.32
12219;BME280;6172;42.646;23.344;2023-06-19T07:59:52;94700.28;;;29.03;38.69
12219;BME280;6172;42.646;23.344;2023-06-19T08:02:19;94706.75;;;29.30;37.75
12219;BME280;6172;42.646;23.344;2023-06-19T08:04:46;94693.84;;;28.90;38.44
12219;BME280;6172;42.646;23.344;2023-06-19T08:07:13;94696.31;;;29.30;37.54
12219;BME280;6172;42.646;23.344;2023-06-19T08:09:40;94695.38;;;29.54;37.00
12219;BME280;6172;42.646;23.344;2023-06-19T08:12:07;94699.41;;;29.58;36.48
12219;BME280;6172;42.646;23.344;2023-06-19T08:14:34;94701.09;;;29.48;37.61
12219;BME280;6172;42.646;23.344;2023-06-19T08:17:03;94696.66;;;30.23;36.22
12219;BME280;6172;42.646;23.344;2023-06-19T08:19:30;94690.91;;;30.29;35.76
12219;BME280;6172;42.646;23.344;2023-06-19T08:21:56;94694.94;;;29.50;37.29
12219;BME280;6172;42.646;23.344;2023-06-19T08:24:23;94683.59;;;29.11;38.05
12219;BME280;6172;42.646;23.344;2023-06-19T08:26:50;94700.75;;;29.07;37.86
12219;BME280;6172;42.646;23.344;2023-06-19T08:29:17;94693.56;;;29.69;34.82
12219;BME280;6172;42.646;23.344;2023-06-19T08:31:44;94695.44;;;29.93;35.16
12219;BME280;6172;42.646;23.344;2023-06-19T08:34:13;94694.13;;;29.81;35.62
12219;BME280;6172;42.646;23.344;2023-06-19T08:36:40;94701.75;;;29.54;34.72
12219;BME280;6172;42.646;23.344;2023-06-19T08:39:07;94699.66;;;29.55;35.08
12219;BME280;6172;42.646;23.344;2023-06-19T08:41:34;94699.00;;;29.67;34.94
12219;BME280;6172;42.646;23.344;2023-06-19T08:44:02;94696.22;;;29.04;35.19
12219;BME280;6172;42.646;23.344;2023-06-19T08:46:30;94696.47;;;29.01;34.92
12219;BME280;6172;42.646;23.344;2023-06-19T08:48:57;94696.66;;;28.90;36.75
12219;BME280;6172;42.646;23.344;2023-06-19T08:51:27;94704.16;;;29.63;33.64
12219;BME280;6172;42.646;23.344;2023-06-19T08:54:01;94694.44;;;29.01;34.45
12219;BME280;6172;42.646;23.344;2023-06-19T08:56:29;94693.75;;;29.14;34.13
12219;BME280;6172;42.646;23.344;2023-06-19T08:59:07;94687.38;;;28.95;33.46
12219;BME280;6172;42.646;23.344;2023-06-19T09:01:34;94695.59;;;28.37;34.31
12219;BME280;6172;42.646;23.344;2023-06-19T09:04:08;94692.69;;;28.48;33.46
12219;BME280;6172;42.646;23.344;2023-06-19T09:06:36;94687.41;;;28.76;35.25
12219;BME280;6172;42.646;23.344;2023-06-19T09:09:13;94708.94;;;29.05;34.13
12219;BME280;6172;42.646;23.344;2023-06-19T09:11:40;94700.75;;;28.70;34.09
12219;BME280;6172;42.646;23.344;2023-06-19T09:14:09;94688.03;;;28.69;33.72
12219;BME280;6172;42.646;23.344;2023-06-19T09:16:38;94689.31;;;28.31;33.69
12219;BME280;6172;42.646;23.344;2023-06-19T09:19:05;94691.72;;;28.40;35.26
12219;BME280;6172;42.646;23.344;2023-06-19T09:21:34;94689.97;;;28.37;35.76
12219;BME280;6172;42.646;23.344;2023-06-19T09:24:05;94696.31;;;28.00;36.52
12219;BME280;6172;42.646;23.344;2023-06-19T09:26:32;94691.34;;;28.31;34.16
12219;BME280;6172;42.646;23.344;2023-06-19T09:29:09;94680.69;;;28.66;33.97
12219;BME280;6172;42.646;23.344;2023-06-19T09:31:36;94680.03;;;27.99;35.80
12219;BME280;6172;42.646;23.344;2023-06-19T09:34:04;94679.38;;;28.67;34.63
12219;BME280;6172;42.646;23.344;2023-06-19T09:36:32;94677.88;;;29.16;32.44
12219;BME280;6172;42.646;23.344;2023-06-19T09:39:00;94686.13;;;28.96;33.83
12219;BME280;6172;42.646;23.344;2023-06-19T09:41:30;94684.59;;;29.26;32.91
12219;BME280;6172;42.646;23.344;2023-06-19T09:43:58;94682.69;;;29.34;33.71
12219;BME280;6172;42.646;23.344;2023-06-19T09:46:29;94686.31;;;29.16;32.60
12219;BME280;6172;42.646;23.344;2023-06-19T09:49:00;94683.16;;;29.51;31.09
12219;BME280;6172;42.646;23.344;2023-06-19T09:51:31;94681.59;;;29.69;30.35
12219;BME280;6172;42.646;23.344;2023-06-19T09:53:59;94678.59;;;29.35;31.70
12219;BME280;6172;42.646;23.344;2023-06-19T09:56:32;94671.88;;;30.22;30.26
12219;BME280;6172;42.646;23.344;2023-06-19T09:59:00;94672.19;;;29.92;31.60
12219;BME280;6172;42.646;23.344;2023-06-19T10:01:29;94681.69;;;29.32;31.32
12219;BME280;6172;42.646;23.344;2023-06-19T10:04:05;94683.00;;;30.41;30.97
12219;BME280;6172;42.646;23.344;2023-06-19T10:06:32;94675.94;;;29.56;31.29
12219;BME280;6172;42.646;23.344;2023-06-19T10:09:09;94673.50;;;30.30;31.21
12219;BME280;6172;42.646;23.344;2023-06-19T10:11:48;94674.00;;;29.64;30.24
12219;BME280;6172;42.646;23.344;2023-06-19T10:14:16;94666.53;;;30.45;30.21
12219;BME280;6172;42.646;23.344;2023-06-19T10:16:45;94659.84;;;30.34;30.51
12219;BME280;6172;42.646;23.344;2023-06-19T10:19:13;94661.41;;;31.03;30.18
12219;BME280;6172;42.646;23.344;2023-06-19T10:21:45;94655.44;;;30.73;29.20
12219;BME280;6172;42.646;23.344;2023-06-19T10:24:16;94655.31;;;30.18;29.27
12219;BME280;6172;42.646;23.344;2023-06-19T10:26:58;94652.78;;;30.41;29.27
12219;BME280;6172;42.646;23.344;2023-06-19T10:29:25;94655.06;;;30.89;28.38
12219;BME280;6172;42.646;23.344;2023-06-19T10:31:53;94655.88;;;30.77;29.33
12219;BME280;6172;42.646;23.344;2023-06-19T10:34:22;94644.06;;;30.99;27.04
12219;BME280;6172;42.646;23.344;2023-06-19T10:36:59;94643.56;;;30.67;27.24
12219;BME280;6172;42.646;23.344;2023-06-19T10:39:26;94658.31;;;30.47;27.82
12219;BME280;6172;42.646;23.344;2023-06-19T10:41:53;94646.25;;;30.12;26.73
12219;BME280;6172;42.646;23.344;2023-06-19T10:44:23;94646.25;;;29.86;29.13
12219;BME280;6172;42.646;23.344;2023-06-19T10:46:53;94652.41;;;29.59;30.09
12219;BME280;6172;42.646;23.344;2023-06-19T10:49:21;94649.50;;;29.20;29.77
12219;BME280;6172;42.646;23.344;2023-06-19T10:51:48;94642.41;;;29.00;29.05
12219;BME280;6172;42.646;23.344;2023-06-19T10:54:16;94649.84;;;28.29;30.12
12219;BME280;6172;42.646;23.344;2023-06-19T10:56:46;94641.63;;;28.12;31.40
12219;BME280;6172;42.646;23.344;2023-06-19T10:59:14;94650.88;;;28.45;32.42
12219;BME280;6172;42.646;23.344;2023-06-19T11:01:44;94649.59;;;28.27;32.92
12219;BME280;6172;42.646;23.344;2023-06-19T11:04:15;94641.19;;;28.08;34.03
12219;BME280;6172;42.646;23.344;2023-06-19T11:06:44;94635.66;;;28.03;32.93
12219;BME280;6172;42.646;23.344;2023-06-19T11:09:12;94635.84;;;27.62;33.34
12219;BME280;6172;42.646;23.344;2023-06-19T11:11:41;94638.66;;;27.86;35.49
12219;BME280;6172;42.646;23.344;2023-06-19T11:14:12;94627.41;;;27.92;36.48
12219;BME280;6172;42.646;23.344;2023-06-19T11:16:40;94635.81;;;27.92;36.11
12219;BME280;6172;42.646;23.344;2023-06-19T11:19:15;94640.44;;;28.08;36.57
12219;BME280;6172;42.646;23.344;2023-06-19T11:21:45;94627.34;;;27.73;36.87
12219;BME280;6172;42.646;23.344;2023-06-19T11:24:14;94632.06;;;27.60;37.33
12219;BME280;6172;42.646;23.344;2023-06-19T11:26:42;94632.00;;;27.65;37.65
12219;BME280;6172;42.646;23.344;2023-06-19T11:29:15;94630.66;;;27.24;38.46
12219;BME280;6172;42.646;23.344;2023-06-19T11:31:44;94616.91;;;27.50;38.50
12219;BME280;6172;42.646;23.344;2023-06-19T11:34:14;94624.34;;;27.47;39.16
12219;BME280;6172;42.646;23.344;2023-06-19T11:36:41;94627.66;;;27.46;38.63
12219;BME280;6172;42.646;23.344;2023-06-19T11:39:10;94627.97;;;27.85;38.88
12219;BME280;6172;42.646;23.344;2023-06-19T11:41:39;94616.53;;;27.40;39.40
12219;BME280;6172;42.646;23.344;2023-06-19T11:44:07;94619.78;;;27.87;38.39
12219;BME280;6172;42.646;23.344;2023-06-19T11:46:36;94621.72;;;27.55;39.65
12219;BME280;6172;42.646;23.344;2023-06-19T11:49:14;94624.66;;;27.62;40.06
12219;BME280;6172;42.646;23.344;2023-06-19T11:51:42;94613.06;;;27.53;39.41
12219;BME280;6172;42.646;23.344;2023-06-19T11:54:11;94610.00;;;27.03;40.19
12219;BME280;6172;42.646;23.344;2023-06-19T11:56:40;94612.34;;;27.23;40.91
12219;BME280;6172;42.646;23.344;2023-06-19T11:59:07;94596.72;;;26.79;42.03
12219;BME280;6172;42.646;23.344;2023-06-19T12:01:35;94609.47;;;26.40;42.68
12219;BME280;6172;42.646;23.344;2023-06-19T12:04:04;94607.06;;;26.55;41.02
12219;BME280;6172;42.646;23.344;2023-06-19T12:06:33;94597.41;;;27.15;42.59
12219;BME280;6172;42.646;23.344;2023-06-19T12:09:01;94601.75;;;27.16;41.15
12219;BME280;6172;42.646;23.344;2023-06-19T12:11:29;94597.84;;;27.48;41.28
12219;BME280;6172;42.646;23.344;2023-06-19T12:13:56;94599.34;;;27.73;41.47
12219;BME280;6172;42.646;23.344;2023-06-19T12:16:23;94595.75;;;27.97;40.45
12219;BME280;6172;42.646;23.344;2023-06-19T12:18:50;94602.13;;;27.97;40.67
12219;BME280;6172;42.646;23.344;2023-06-19T12:21:17;94608.84;;;28.07;40.76
12219;BME280;6172;42.646;23.344;2023-06-19T12:23:45;94597.84;;;27.91;39.89
12219;BME280;6172;42.646;23.344;2023-06-19T12:26:12;94586.13;;;28.11;41.32
12219;BME280;6172;42.646;23.344;2023-06-19T12:28:39;94590.72;;;28.46;39.63
12219;BME280;6172;42.646;23.344;2023-06-19T12:31:06;94594.81;;;28.45;40.66
12219;BME280;6172;42.646;23.344;2023-06-19T12:33:33;94595.28;;;28.11;40.70
12219;BME280;6172;42.646;23.344;2023-06-19T12:36:02;94595.81;;;27.91;40.08
12219;BME280;6172;42.646;23.344;2023-06-19T12:38:31;94593.94;;;27.99;40.89
12219;BME280;6172;42.646;23.344;2023-06-19T12:40:59;94587.22;;;27.84;41.19
12219;BME280;6172;42.646;23.344;2023-06-19T12:43:26;94587.28;;;28.21;39.97
12219;BME280;6172;42.646;23.344;2023-06-19T12:45:54;94589.78;;;27.63;41.07
12219;BME280;6172;42.646;23.344;2023-06-19T12:48:20;94576.50;;;27.45;41.84
12219;BME280;6172;42.646;23.344;2023-06-19T12:50:47;94586.78;;;27.37;42.00
12219;BME280;6172;42.646;23.344;2023-06-19T12:53:15;94588.66;;;27.00;41.71
12219;BME280;6172;42.646;23.344;2023-06-19T12:55:43;94583.44;;;26.56;43.09
12219;BME280;6172;42.646;23.344;2023-06-19T12:58:11;94585.78;;;26.81;44.13
12219;BME280;6172;42.646;23.344;2023-06-19T13:00:39;94575.00;;;26.91;43.28